Bookmark and Share
Track history (hours):
 

Helliar

Last reported at 2014-Apr-24 04:10 UTC. Time now 2014-Apr-24 19:59 UTC.
Position N 59°05' W 002°25'.

Length 122 m; draft 5.1 m.

Type: Ship (hazmat cat A). MMSI: 235087119.

NotesDate/timePositionNaut miles runAvg speedWind from/ knotsBaromVisibWave heightAir tempDewpointWater temp
2014-Apr-24 04:10N 59°05' W 002°25'812.9
2014-Apr-24 03:33N 58°60' W 002°37'1110.9
2014-Apr-24 02:31N 58°60' W 002°58'0 0.0
2014-Apr-24 01:31N 58°60' W 002°58'6 6.2
2014-Apr-24 00:33N 59°00' W 002°47'1414.1
2014-Apr-23 23:33N 58°48' W 002°32'1514.8
2014-Apr-23 22:33N 58°34' W 002°22'1514.5
2014-Apr-23 21:31N 58°20' W 002°13'3414.1
2014-Apr-23 19:07N 57°48' W 001°51'713.1
2014-Apr-23 18:33N 57°41' W 001°47'1212.2
2014-Apr-23 17:33N 57°29' W 001°43'1313.3
2014-Apr-23 16:33N 57°17' W 001°52'1110.9
2014-Apr-23 15:33N 57°09' W 002°05'0 0.0
2014-Apr-23 14:33N 57°09' W 002°05'0 0.0
2014-Apr-23 09:18N 57°09' W 002°05'0 0.0
2014-Apr-23 08:33N 57°09' W 002°05'0 0.0
2014-Apr-23 07:33N 57°09' W 002°05'0 0.0
2014-Apr-23 06:30N 57°09' W 002°05'0 0.0
2014-Apr-23 05:30N 57°09' W 002°05'0 0.0
2014-Apr-23 04:30N 57°09' W 002°05'0 0.0
2014-Apr-23 03:33N 57°09' W 002°05'0 0.0
2014-Apr-23 02:33N 57°09' W 002°05'0 0.0
2014-Apr-23 01:33N 57°09' W 002°05'0 0.0
2014-Apr-23 00:33N 57°09' W 002°05'0 0.0
2014-Apr-22 23:33N 57°09' W 002°05'0 0.0
2014-Apr-22 22:33N 57°09' W 002°05'0 0.0
2014-Apr-22 21:33N 57°09' W 002°05'0 0.0
2014-Apr-22 20:33N 57°09' W 002°05'0 0.0
2014-Apr-22 19:33N 57°09' W 002°05'0 0.0
2014-Apr-22 18:30N 57°09' W 002°05'0 0.0
2014-Apr-22 17:33N 57°09' W 002°05'0 0.2
2014-Apr-22 16:31N 57°09' W 002°05'0 0.0
2014-Apr-22 15:31N 57°09' W 002°05'0 0.0
2014-Apr-22 14:31N 57°09' W 002°05'0 0.0
2014-Apr-22 13:31N 57°09' W 002°05'0 0.0
2014-Apr-22 12:31N 57°09' W 002°05'0 0.0
2014-Apr-22 11:31N 57°09' W 002°05'0 0.0
2014-Apr-22 10:28N 57°09' W 002°05'0 0.0
2014-Apr-22 09:31N 57°09' W 002°05'12 2.0
2014-Apr-22 03:34N 57°18' W 001°51'1313.5
2014-Apr-22 02:34N 57°31' W 001°43'1313.0
2014-Apr-22 01:34N 57°43' W 001°48'1312.7
2014-Apr-22 00:33N 57°55' W 001°56'1312.8
2014-Apr-21 23:33N 58°07' W 002°05'1312.8
2014-Apr-21 22:33N 58°19' W 002°13'1312.8
2014-Apr-21 21:34N 58°32' W 002°21'1313.0
2014-Apr-21 20:34N 58°44' W 002°29'1313.3
2014-Apr-21 19:33N 58°56' W 002°38'1111.1
2014-Apr-21 18:33N 59°00' W 002°58'1 0.6
2014-Apr-21 17:33N 58°60' W 002°58'0 0.0
2014-Apr-21 16:33N 58°60' W 002°58'0 0.0
2014-Apr-21 15:33N 58°60' W 002°58'0 0.0
2014-Apr-21 14:33N 58°60' W 002°58'0 0.0
2014-Apr-21 13:30N 58°60' W 002°58'0 0.0
2014-Apr-21 12:33N 58°60' W 002°58'0 0.0
2014-Apr-21 11:33N 58°60' W 002°58'0 0.0
2014-Apr-21 10:32N 58°60' W 002°58'0 0.0
2014-Apr-21 09:32N 58°60' W 002°58'0 0.0
2014-Apr-21 08:32N 58°60' W 002°58'0 0.0
2014-Apr-21 07:32N 58°60' W 002°58'0 0.0
2014-Apr-21 06:32N 58°60' W 002°58'0 0.0
2014-Apr-21 05:32N 58°60' W 002°58'0 0.0
2014-Apr-21 04:32N 58°60' W 002°58'0 0.0
2014-Apr-21 03:32N 58°60' W 002°58'0 0.0
2014-Apr-21 02:32N 58°60' W 002°58'0 0.0
2014-Apr-21 01:32N 58°60' W 002°58'0 0.0
2014-Apr-21 00:32N 58°60' W 002°58'0 0.0
2014-Apr-20 23:32N 58°60' W 002°58'0 0.3
2014-Apr-20 22:33N 59°00' W 002°58'6 6.3
2014-Apr-20 21:33N 59°01' W 002°46'9 9.2
2014-Apr-20 20:33N 59°04' W 002°29'86 3.2
2014-Apr-19 17:33N 57°42' W 001°40'1111.3
2014-Apr-19 16:33N 57°31' W 001°42'1010.4
2014-Apr-19 15:33N 57°21' W 001°48'1410.8
2014-Apr-19 14:13N 57°09' W 002°03'1 1.4
2014-Apr-19 13:31N 57°09' W 002°05'0 0.0
2014-Apr-19 12:31N 57°09' W 002°05'0 0.0
2014-Apr-19 11:31N 57°09' W 002°05'0 0.0
2014-Apr-19 10:28N 57°09' W 002°05'0 0.0
2014-Apr-19 09:31N 57°09' W 002°05'0 0.0
2014-Apr-19 08:28N 57°09' W 002°05'0 0.0
2014-Apr-19 07:31N 57°09' W 002°05'0 0.1
2014-Apr-19 06:33N 57°09' W 002°05'1110.2
2014-Apr-19 05:29N 57°17' W 001°51'1212.6
2014-Apr-19 04:33N 57°28' W 001°43'1414.4
2014-Apr-19 03:33N 57°42' W 001°39'1514.3
2014-Apr-19 02:29N 57°57' W 001°35'51 1.5
2014-Apr-17 16:33N 57°09' W 002°05'0 0.0
2014-Apr-17 15:33N 57°09' W 002°05'0 0.0
2014-Apr-17 14:33N 57°09' W 002°05'0 0.0
2014-Apr-17 13:33N 57°09' W 002°05'0 0.0
2014-Apr-17 12:33N 57°09' W 002°05'0 0.0
2014-Apr-17 09:06N 57°09' W 002°05'0 0.0
2014-Apr-17 08:33N 57°09' W 002°05'0 0.0
2014-Apr-17 07:33N 57°09' W 002°05'0 0.0
2014-Apr-17 06:33N 57°09' W 002°05'0 0.0
2014-Apr-15 16:32N 57°09' W 002°05'0 0.0
2014-Apr-15 11:32N 57°09' W 002°05'0 0.0
2014-Apr-15 10:32N 57°09' W 002°05'0 0.0
2014-Apr-15 09:32N 57°09' W 002°05'0 0.0
2014-Apr-15 08:32N 57°09' W 002°05'0 0.0
2014-Apr-15 07:32N 57°09' W 002°05'0 0.0
2014-Apr-15 06:32N 57°09' W 002°05'0 0.0
2014-Apr-15 05:34N 57°09' W 002°05'  

Dump ship's entire track history

sailing weather and tide predictions

Helliar — 2EPP5 — position and weather